createdAt,value
2022-10-23T00:03:32.489Z,100068.78
2022-10-23T00:08:35.880Z,100071.20
2022-10-23T00:13:39.231Z,100063.36
2022-10-23T00:18:42.093Z,100067.42
2022-10-23T00:23:45.550Z,100070.02
2022-10-23T00:28:50.962Z,100075.85
2022-10-23T00:33:54.319Z,100070.72
2022-10-23T00:38:57.063Z,100078.15
2022-10-23T00:44:18.305Z,100079.36
2022-10-23T00:49:23.059Z,100086.21
2022-10-23T00:54:29.837Z,100080.79
2022-10-23T00:59:33.797Z,100083.32
2022-10-23T01:04:37.330Z,100094.59
2022-10-23T01:09:51.367Z,100096.13
2022-10-23T01:15:12.397Z,100096.56
2022-10-23T01:20:21.287Z,100105.05
2022-10-23T01:25:50.904Z,100109.95
2022-10-23T01:30:57.994Z,100120.04
2022-10-23T01:36:04.946Z,100117.73
2022-10-23T01:41:15.328Z,100113.77
2022-10-23T01:46:18.569Z,100116.13
2022-10-23T01:51:26.173Z,100116.07
2022-10-23T01:56:32.970Z,100114.92
2022-10-23T02:01:37.678Z,100120.55
2022-10-23T02:06:41.249Z,100120.80
2022-10-23T02:12:09.100Z,100121.66
2022-10-23T02:17:28.496Z,100124.05
2022-10-23T02:22:38.590Z,100121.34
2022-10-23T02:27:53.251Z,100120.03
2022-10-23T02:32:57.709Z,100132.06
2022-10-23T02:38:02.042Z,100138.42
2022-10-23T02:43:32.965Z,100143.42
2022-10-23T02:48:48.011Z,100141.22
2022-10-23T02:54:03.067Z,100131.30
2022-10-23T02:59:26.659Z,100129.05
2022-10-23T03:04:31.955Z,100134.75
2022-10-23T03:09:34.647Z,100129.48
2022-10-23T03:14:37.442Z,100123.69
2022-10-23T03:19:40.196Z,100122.12
2022-10-23T03:24:42.944Z,100129.77
2022-10-23T03:29:45.664Z,100121.65
2022-10-23T03:34:48.334Z,100122.71
2022-10-23T03:39:51.181Z,100126.05
2022-10-23T03:44:53.896Z,100134.10
2022-10-23T03:49:56.563Z,100141.21
2022-10-23T03:54:59.223Z,100143.08
2022-10-23T04:00:02.521Z,100142.51
2022-10-23T04:05:06.087Z,100138.70
2022-10-23T04:10:09.253Z,100138.23
2022-10-23T04:15:11.988Z,100139.38
2022-10-23T04:20:14.902Z,100143.67
2022-10-23T04:25:17.741Z,100154.23
2022-10-23T04:30:20.444Z,100150.38
2022-10-23T04:35:23.173Z,100144.45
2022-10-23T04:40:25.908Z,100146.83
2022-10-23T04:45:28.683Z,100160.79
2022-10-23T04:50:31.419Z,100170.82
2022-10-23T04:55:34.118Z,100173.95
2022-10-23T05:00:36.850Z,100176.13
2022-10-23T05:05:40.099Z,100179.53
2022-10-23T05:10:42.798Z,100184.78
2022-10-23T05:15:47.656Z,100187.64
2022-10-23T05:20:54.584Z,100188.66
2022-10-23T05:25:57.307Z,100188.36
2022-10-23T05:31:02.871Z,100189.71
2022-10-23T05:36:06.012Z,100195.89
2022-10-23T05:41:08.877Z,100197.14
2022-10-23T05:46:12.107Z,100200.52
2022-10-23T05:51:20.329Z,100198.69
2022-10-23T05:56:23.050Z,100196.88
2022-10-23T06:01:25.893Z,100200.68
2022-10-23T06:06:28.879Z,100193.03
2022-10-23T06:11:31.627Z,100198.90
2022-10-23T06:16:34.707Z,100203.77
2022-10-23T06:21:38.919Z,100210.96
2022-10-23T06:26:41.560Z,100218.55
2022-10-23T06:31:44.342Z,100224.52
2022-10-23T06:36:47.031Z,100226.11
2022-10-23T06:41:49.726Z,100222.14
2022-10-23T06:46:52.502Z,100220.60
2022-10-23T06:51:55.173Z,100223.54
2022-10-23T06:56:57.866Z,100230.44
2022-10-23T07:02:00.789Z,100226.44
2022-10-23T07:07:03.658Z,100228.41
2022-10-23T07:12:06.673Z,100226.60
2022-10-23T07:17:09.442Z,100223.21
2022-10-23T07:22:14.968Z,100225.48
2022-10-23T07:27:18.886Z,100223.50
2022-10-23T07:32:23.978Z,100226.20
2022-10-23T07:37:29.234Z,100220.98
2022-10-23T07:42:32.011Z,100227.16
2022-10-23T07:47:35.083Z,100224.63
2022-10-23T07:52:37.783Z,100228.81
2022-10-23T07:57:40.529Z,100227.43
2022-10-23T08:02:43.513Z,100243.27
2022-10-23T08:07:46.554Z,100246.84
2022-10-23T08:12:49.289Z,100248.08
2022-10-23T08:17:52.334Z,100246.48
2022-10-23T08:22:55.725Z,100246.77
2022-10-23T08:27:58.423Z,100244.86
2022-10-23T08:33:06.755Z,100249.67
2022-10-23T08:38:11.083Z,100253.19
2022-10-23T08:43:39.200Z,100254.94
2022-10-23T08:48:51.497Z,100250.24
2022-10-23T08:54:06.750Z,100250.66
2022-10-23T08:59:12.272Z,100253.56
2022-10-23T09:04:16.439Z,100254.92
2022-10-23T09:09:36.375Z,100252.14
2022-10-23T09:14:56.108Z,100251.29
2022-10-23T09:20:01.907Z,100257.57
2022-10-23T09:25:14.584Z,100266.44
2022-10-23T09:30:32.263Z,100267.81
2022-10-23T09:35:34.949Z,100268.11
2022-10-23T09:40:44.397Z,100263.71
2022-10-23T09:46:00.893Z,100265.20
2022-10-23T09:51:25.314Z,100256.40
2022-10-23T09:56:30.760Z,100260.12
2022-10-23T10:01:45.404Z,100263.96
2022-10-23T10:06:57.659Z,100261.32
2022-10-23T10:12:26.747Z,100263.11
2022-10-23T10:17:39.745Z,100258.05
2022-10-23T10:23:06.779Z,100256.75
2022-10-23T10:28:26.944Z,100254.91
2022-10-23T10:33:36.716Z,100259.17
2022-10-23T10:38:53.442Z,100259.44
2022-10-23T10:44:38.271Z,100260.07
2022-10-23T10:49:52.033Z,100263.44
2022-10-23T10:55:20.056Z,100264.00
2022-10-23T11:00:23.779Z,100266.95
2022-10-23T11:11:20.532Z,100270.93
2022-10-23T11:16:39.339Z,100270.63
2022-10-23T11:21:54.902Z,100275.11
2022-10-23T11:27:09.879Z,100273.61
2022-10-23T11:32:57.169Z,100271.48
2022-10-23T11:38:28.248Z,100269.14
2022-10-23T11:43:51.744Z,100262.86
2022-10-23T11:48:56.483Z,100257.84
2022-10-23T11:54:27.342Z,100253.14
2022-10-23T11:59:33.521Z,100250.68
2022-10-23T12:04:56.506Z,100245.30
2022-10-23T12:10:03.245Z,100248.79
2022-10-23T12:15:14.789Z,100251.80
2022-10-23T12:20:42.527Z,100246.47
2022-10-23T12:26:06.462Z,100246.61
2022-10-23T12:31:28.164Z,100253.36
2022-10-23T12:37:08.356Z,100253.63
2022-10-23T12:42:21.783Z,100247.80
2022-10-23T12:47:29.237Z,100249.52
2022-10-23T12:52:35.787Z,100250.55
2022-10-23T12:57:42.139Z,100242.00
2022-10-23T13:02:45.187Z,100240.84
2022-10-23T13:07:48.912Z,100243.89
2022-10-23T13:13:02.844Z,100241.98
2022-10-23T13:18:07.628Z,100237.70
2022-10-23T13:23:22.760Z,100235.83
2022-10-23T13:28:28.557Z,100240.05
2022-10-23T13:33:43.037Z,100244.81
2022-10-23T13:39:03.539Z,100248.05
2022-10-23T13:44:07.146Z,100242.45
2022-10-23T13:49:10.452Z,100239.95
2022-10-23T13:59:35.348Z,100237.48
2022-10-23T14:04:38.112Z,100247.84
2022-10-23T14:09:41.320Z,100247.89
2022-10-23T14:14:44.146Z,100241.94
2022-10-23T14:19:47.327Z,100241.02
2022-10-23T14:24:50.352Z,100236.05
2022-10-23T14:29:53.102Z,100231.86
2022-10-23T14:34:56.202Z,100235.48
2022-10-23T14:39:59.511Z,100235.69
2022-10-23T14:45:04.580Z,100237.58
2022-10-23T14:50:08.271Z,100243.63
2022-10-23T14:55:11.010Z,100249.16
2022-10-23T15:00:14.668Z,100240.66
2022-10-23T15:05:18.122Z,100241.02
2022-10-23T15:10:23.015Z,100240.41
2022-10-23T15:15:25.755Z,100241.85
2022-10-23T15:20:28.555Z,100236.86
2022-10-23T15:25:31.699Z,100234.99
2022-10-23T15:30:34.627Z,100233.87
2022-10-23T15:35:37.428Z,100235.05
2022-10-23T15:40:43.249Z,100241.13
2022-10-23T15:45:46.134Z,100238.20
2022-10-23T15:50:49.210Z,100246.06
2022-10-23T15:55:51.887Z,100247.65
2022-10-23T16:00:54.662Z,100255.97
2022-10-23T16:05:57.342Z,100255.91
2022-10-23T16:11:00.448Z,100256.88
2022-10-23T16:16:03.952Z,100261.67
2022-10-23T16:21:07.797Z,100262.44
2022-10-23T16:26:10.569Z,100259.63
2022-10-23T16:31:20.121Z,100264.67
2022-10-23T16:36:23.341Z,100262.32
2022-10-23T16:41:26.131Z,100267.02
2022-10-23T16:46:29.120Z,100267.15
2022-10-23T16:51:32.232Z,100264.83
2022-10-23T16:56:35.868Z,100265.70
2022-10-23T17:01:38.910Z,100268.24
2022-10-23T17:06:41.907Z,100271.27
2022-10-23T17:11:45.721Z,100269.12
2022-10-23T17:16:51.811Z,100266.54
2022-10-23T17:21:56.097Z,100269.27
2022-10-23T17:26:58.770Z,100269.98
2022-10-23T17:32:03.203Z,100269.64
2022-10-23T17:37:05.937Z,100276.77
2022-10-23T17:42:09.097Z,100271.52
2022-10-23T17:47:11.912Z,100273.88
2022-10-23T17:52:15.168Z,100269.34
2022-10-23T17:57:18.292Z,100275.61
2022-10-23T18:02:21.068Z,100271.54
2022-10-23T18:07:27.283Z,100275.52
2022-10-23T18:12:30.021Z,100279.46
2022-10-23T18:17:32.901Z,100283.05
2022-10-23T18:22:36.097Z,100279.84
2022-10-23T18:27:41.531Z,100283.98
2022-10-23T18:32:44.532Z,100281.77
2022-10-23T18:37:48.150Z,100280.23
2022-10-23T18:42:52.242Z,100278.39
2022-10-23T18:47:55.021Z,100273.71
2022-10-23T18:52:57.714Z,100273.17
2022-10-23T18:58:00.450Z,100277.08
2022-10-23T19:03:03.214Z,100276.11
2022-10-23T19:08:06.126Z,100279.98
2022-10-23T19:13:08.877Z,100281.23
2022-10-23T19:18:11.872Z,100277.20
2022-10-23T19:23:15.956Z,100281.02
2022-10-23T19:28:18.967Z,100269.33
2022-10-23T19:33:21.635Z,100257.20
2022-10-23T19:38:24.272Z,100256.92
2022-10-23T19:43:27.460Z,100257.61
2022-10-23T19:48:30.970Z,100261.19
2022-10-23T19:53:34.286Z,100256.21
2022-10-23T19:58:37.698Z,100257.54
2022-10-23T20:03:42.243Z,100251.41
2022-10-23T20:08:45.797Z,100246.36
2022-10-23T20:13:50.489Z,100244.10
2022-10-23T20:18:54.052Z,100236.73
2022-10-23T20:24:00.207Z,100236.14
2022-10-23T20:29:03.017Z,100242.78
2022-10-23T20:34:09.602Z,100237.94
2022-10-23T20:39:21.577Z,100230.65
2022-10-23T20:44:24.779Z,100225.65
2022-10-23T20:49:28.477Z,100225.05
2022-10-23T20:54:32.495Z,100215.31
2022-10-23T20:59:36.837Z,100222.83
2022-10-23T21:04:39.626Z,100225.44
2022-10-23T21:09:42.319Z,100225.64
2022-10-23T21:14:44.968Z,100227.77
2022-10-23T21:19:47.959Z,100230.29
2022-10-23T21:24:51.241Z,100235.56
2022-10-23T21:29:54.530Z,100237.45
2022-10-23T21:34:57.194Z,100234.84
2022-10-23T21:40:00.442Z,100240.33
2022-10-23T21:45:03.676Z,100235.79
2022-10-23T21:50:07.393Z,100231.61
2022-10-23T21:55:10.531Z,100228.35
2022-10-23T22:00:16.621Z,100228.59
2022-10-23T22:05:19.300Z,100227.66
2022-10-23T22:10:22.023Z,100226.55
2022-10-23T22:15:24.797Z,100227.14
2022-10-23T22:20:27.502Z,100228.50
2022-10-23T22:25:31.696Z,100236.72
2022-10-23T22:30:37.828Z,100232.27
2022-10-23T22:35:40.568Z,100234.21
2022-10-23T22:40:46.650Z,100228.48
2022-10-23T22:45:49.553Z,100229.56
2022-10-23T22:50:52.226Z,100227.38
2022-10-23T22:55:55.848Z,100236.16
2022-10-23T23:01:10.135Z,100237.96
2022-10-23T23:06:13.852Z,100238.21
2022-10-23T23:11:19.140Z,100236.61
2022-10-23T23:16:28.262Z,100236.55
2022-10-23T23:21:31.740Z,100227.38
2022-10-23T23:26:34.415Z,100222.27
2022-10-23T23:31:37.112Z,100216.67
2022-10-23T23:36:39.766Z,100204.08
2022-10-23T23:41:43.063Z,100189.61
2022-10-23T23:46:45.758Z,100196.87
2022-10-23T23:51:48.477Z,100193.23
2022-10-23T23:56:51.131Z,100187.92
